Havre-Saint-Pierre, Canada
Current Conditions -  °F | °C
As of 12:00 PM on Saturday 20 Dec 2014 (Local Time) from CYGV Reporting Station
Clear Clear  
Wind Chill: 18°   Ceiling: Unl
Heat Index: 18°   Visibility: 9mi
Dew Point: 10°   Wind: 3mph
Humidity: 73%   Direction: 360°N
Pressure: 30.35"   Gusts: NA
Location:  50.25°N, 63.58°W
Report Text: CYGV 201600Z AUTO 36003KT 330V060 9SM CLR M08/M12 A3035 RMK SLP282
Loading
Personal Weather Stations






























Interactive Weather Map New forecast layout! Learn more

10-Day Weather Forecast

Advertisements
Track Severe Weather on mobile